D/T METAR WX W/DIR W/SPE G/SPE TEMP DEWP
8/12/19 10:20 EGKB 081020Z 24016G28KT 210V270 9999 SCT030 09/05 Q1002 WSW (240°) 18.4mph 32.2mph 9°C 5°C
8/12/19 09:50 EGKB 080950Z 24016KT 9999 FEW025 SCT035 09/05 Q1002 WSW (240°) 18.4mph 9°C 5°C
8/12/19 09:20 EGKB 080920Z 24014KT 220V280 9999 FEW025 09/05 Q1002 WSW (240°) 16.1mph 9°C 5°C
8/12/19 08:20 EGKB 080820Z 24015KT 210V270 9999 FEW010 08/05 Q1001 WSW (240°) 17.3mph 8°C 5°C
8/12/19 07:50 EGKB 080750Z 25016KT 220V280 9999 FEW010 09/05 Q1000 WSW (250°) 18.4mph 9°C 5°C
7/12/19 21:20 EGKB 072120Z 21021G31KT 9999 BKN011 09/07 Q1009 SSW (210°) 24.2mph 35.7mph 9°C 7°C
7/12/19 20:50 EGKB 072050Z 21021KT 9999 BKN011 09/07 Q1009 SSW (210°) 24.2mph 9°C 7°C
7/12/19 19:50 EGKB 071950Z 21012KT 9999 BKN015 09/07 Q1011 SSW (210°) 13.8mph 9°C 7°C
7/12/19 19:20 EGKB 071920Z 22014KT 190V250 9999 BKN018 09/07 Q1011 SW (220°) 16.1mph 9°C 7°C
7/12/19 18:20 EGKB 071820Z 22011KT 9999 BKN020 08/06 Q1012 SW (220°) 12.7mph 8°C 6°C
7/12/19 17:50 EGKB 071750Z 22011KT 9999 BKN020 08/06 Q1013 SW (220°) 12.7mph 8°C 6°C
7/12/19 16:50 EGKB 071650Z 22010KT 9999 BKN020 09/06 Q1013 SW (220°) 11.5mph 9°C 6°C
7/12/19 16:20 EGKB 071620Z 22010KT 9999 BKN022 09/06 Q1013 SW (220°) 11.5mph 9°C 6°C
7/12/19 15:50 EGKB 071550Z 21009KT 9999 FEW015 BKN030 09/06 Q1013 SSW (210°) 10.4mph 9°C 6°C
7/12/19 15:20 EGKB 071520Z 23009KT 9999 FEW015 BKN030 09/05 Q1013 SW (230°) 10.4mph 9°C 5°C
7/12/19 14:20 EGKB 071420Z 22009KT 190V250 9999 SCT030 09/05 Q1013 SW (220°) 10.4mph 9°C 5°C
7/12/19 13:50 EGKB 071350Z 22011KT 9999 FEW030 09/06 Q1013 SW (220°) 12.7mph 9°C 6°C
7/12/19 13:20 EGKB 071320Z 23009KT 190V260 9999 SCT030 09/05 Q1014 SW (230°) 10.4mph 9°C 5°C
7/12/19 12:50 EGKB 071250Z 23007KT 200V260 9999 SCT030 09/05 Q1014 SW (230°) 8.1mph 9°C 5°C
7/12/19 12:20 EGKB 071220Z 23008KT 9999 BKN031 09/05 Q1014 SW (230°) 9.2mph 9°C 5°C
7/12/19 11:20 EGKB 071120Z 22008KT 9999 BKN031 08/06 Q1015 SW (220°) 9.2mph 8°C 6°C
7/12/19 10:50 EGKB 071050Z 22009KT 190V250 9999 BKN034 08/06 Q1014 SW (220°) 10.4mph 8°C 6°C
7/12/19 10:20 EGKB 071020Z 22008KT 9999 BKN034 08/06 Q1015 SW (220°) 9.2mph 8°C 6°C
7/12/19 09:50 EGKB 070950Z 23007KT 200V260 9999 BKN035 07/05 Q1015 SW (230°) 8.1mph 7°C 5°C
7/12/19 09:20 EGKB 070920Z 23007KT 200V260 9999 BKN035 07/05 Q1015 SW (230°) 8.1mph 7°C 5°C
7/12/19 08:50 EGKB 070850Z 22006KT 9999 BKN035 07/05 Q1014 SW (220°) 6.9mph 7°C 5°C
7/12/19 07:50 EGKB 070750Z 22008KT CAVOK 06/05 Q1014 SW (220°) 9.2mph 6°C 5°C
6/12/19 22:20 EGKB 062220Z 25011KT 9999 FEW025 08/06 Q1008 WSW (250°) 12.7mph 8°C 6°C
6/12/19 21:20 EGKB 062120Z 26010KT 230V290 9999 SCT030 09/06 Q1007 W (260°) 11.5mph 9°C 6°C
6/12/19 20:50 EGKB 062050Z 27012KT 240V300 9999 BKN040 09/06 Q1007 W (270°) 13.8mph 9°C 6°C
6/12/19 20:20 EGKB 062020Z 26013KT 9999 BKN035 09/07 Q1007 W (260°) 15.0mph 9°C 7°C
6/12/19 19:50 EGKB 061950Z 26011KT 220V290 9999 FEW025 BKN045 09/06 Q1006 W (260°) 12.7mph 9°C 6°C
6/12/19 19:20 EGKB 061920Z 26011G21KT 230V290 9999 SCT040 09/07 Q1006 W (260°) 12.7mph 24.2mph 9°C 7°C
6/12/19 18:50 EGKB 061850Z 25015KT 9999 FEW040 09/06 Q1005 WSW (250°) 17.3mph 9°C 6°C
6/12/19 18:20 EGKB 061820Z 26012G23KT 230V300 9999 FEW020 09/07 Q1004 W (260°) 13.8mph 26.5mph 9°C 7°C
6/12/19 17:50 EGKB 061750Z 26015KT 9999 SCT020 BKN040 10/07 Q1004 W (260°) 17.3mph 10°C 7°C
6/12/19 17:20 EGKB 061720Z 25014G26KT 210V300 9999 -DZ SCT020 10/07 Q1003 -DZ WSW (250°) 16.1mph 29.9mph 10°C 7°C
6/12/19 16:50 EGKB 061650Z 25017G31KT 220V290 9999 SCT020 10/07 Q1003 RERA WSW (250°) 19.6mph 35.7mph 10°C 7°C
6/12/19 16:20 EGKB 061620Z 26015G27KT 230V290 9999 SCT020 10/08 Q1002 RERA W (260°) 17.3mph 31.1mph 10°C 8°C
6/12/19 15:50 EGKB 061550Z 23012KT 200V260 2500 +RA SCT010 BKN020 11/10 Q1002 +RA SW (230°) 13.8mph 11°C 10°C
6/12/19 14:50 EGKB 061450Z 23012KT 200V260 9999 SCT025 11/09 Q1002 SW (230°) 13.8mph 11°C 9°C
6/12/19 14:20 EGKB 061420Z 24015G27KT 200V260 9999 SCT045 11/09 Q1002 WSW (240°) 17.3mph 31.1mph 11°C 9°C
6/12/19 13:50 EGKB 061350Z 24013KT 210V280 9999 SCT035 11/09 Q1003 WSW (240°) 15.0mph 11°C 9°C
6/12/19 13:20 EGKB 061320Z 24016G26KT 200V270 9999 3000SE SCT020 BKN035 11/10 Q1003 WSW (240°) 18.4mph 29.9mph 11°C 10°C
6/12/19 12:50 EGKB 061250Z 23016G30KT 200V260 9999 -SHRA SCT010 BKN020 12/11 Q1003 -SHRA SW (230°) 18.4mph 34.5mph 12°C 11°C
6/12/19 12:20 EGKB 061220Z 23014KT 190V250 9999 BKN011 11/11 Q1003 SW (230°) 16.1mph 11°C 11°C
6/12/19 11:50 EGKB 061150Z 22017KT 200V260 9999 BKN007 11/11 Q1004 SW (220°) 19.6mph 11°C 11°C
6/12/19 11:20 EGKB 061120Z 22017G28KT 200V260 4000 BKN006 11/11 Q1004 SW (220°) 19.6mph 32.2mph 11°C 11°C